Terminal Aerodrome Forecast
Issued by NWS

Home | Current Version | Previous Version | Text Only | Print | Product List | Glossary On
Versions: 1 2 3 4 5 6 7 8 9 10 11 12 13 14 15 16
786
FTUS43 KMQT 221722
TAFIWD
TAF
KIWD 221722Z 2218/2318 28004KT 1/4SM FG OVC002
     FM222000 29004KT 1/2SM FG OVC003
     FM230600 26003KT 1/4SM FG OVC003
     FM231300 26003KT 3/4SM BR OVC003
     FM231700 26003KT P6SM OVC003=

USA.gov is the U.S. government's official web portal to all federal, state and local government web resources and services.